Time;durP1;ratioP1;P1;durP2;ratioP2;P2;SDS_P1;SDS_P2;PMS_P1;PMS_P2;Temp;Humidity;BMP_temperature;BMP_pressure;BME280_temperature;BME280_humidity;BME280_pressure;Samples;Min_cycle;Max_cycle;Signal;HPM_P1;HPM_P2
2022/11/02 00:01:19;;;;;;;4.43;1.98;;;12.10;85.40;;;14.96;52.45;98205.94;4891465;29;20055;-53
2022/11/02 00:03:47;;;;;;;3.60;1.70;;;12.10;84.70;;;14.97;52.53;98204.97;4907800;29;20056;-52
2022/11/02 00:06:15;;;;;;;4.78;1.70;;;12.10;85.00;;;14.99;52.50;98207.47;4907986;29;20246;-55
2022/11/02 00:08:44;;;;;;;7.15;1.90;;;12.10;84.80;;;15.00;52.67;98209.13;4891544;29;20051;-55
2022/11/02 00:11:12;;;;;;;3.60;1.65;;;12.10;85.20;;;14.95;52.55;98213.16;4907792;29;20048;-51
2022/11/02 00:13:40;;;;;;;6.65;1.50;;;12.00;85.30;;;14.93;52.49;98206.31;4907216;29;20058;-55
2022/11/02 00:16:13;;;;;;;2.80;1.67;;;12.00;85.00;;;14.87;52.35;98202.50;4906554;29;20254;-54
2022/11/02 00:18:43;;;;;;;4.17;1.73;;;11.90;85.70;;;14.89;52.47;98202.31;4891534;29;20246;-53
2022/11/02 00:21:14;;;;;;;4.88;1.50;;;11.80;85.60;;;14.85;52.25;98209.88;4907851;29;20283;-55
2022/11/02 00:23:42;;;;;;;2.95;1.80;;;11.80;85.60;;;14.85;52.41;98212.56;4891111;29;20074;-54
2022/11/02 00:26:11;;;;;;;5.38;1.73;;;11.90;86.10;;;14.82;52.56;98212.91;4891078;29;20060;-54
2022/11/02 00:28:40;;;;;;;4.65;1.60;;;11.80;85.60;;;14.73;52.63;98212.09;4907338;29;20055;-52
2022/11/02 00:31:08;;;;;;;4.57;2.17;;;11.70;86.60;;;14.73;52.73;98219.28;4907540;29;20055;-53
2022/11/02 00:33:36;;;;;;;8.20;2.38;;;11.70;87.00;;;14.80;52.61;98208.72;4906516;29;20052;-55
2022/11/02 00:36:05;;;;;;;4.05;1.60;;;11.80;86.10;;;14.77;52.60;98210.75;4907447;29;20068;-53
2022/11/02 00:38:33;;;;;;;2.95;1.83;;;11.80;85.70;;;14.70;52.76;98215.13;4890670;29;20366;-55
2022/11/02 00:41:01;;;;;;;3.33;1.67;;;11.70;86.50;;;14.67;53.01;98214.63;4905653;29;20070;-54
2022/11/02 00:43:29;;;;;;;2.97;1.30;;;11.70;86.40;;;14.68;52.77;98213.63;4890181;29;20063;-52
2022/11/02 00:45:57;;;;;;;3.92;1.55;;;11.70;86.50;;;14.68;52.84;98214.47;4907335;29;20058;-55
2022/11/02 00:48:26;;;;;;;3.47;1.45;;;11.60;86.60;;;14.68;52.86;98219.81;4907125;29;20074;-54
2022/11/02 00:50:54;;;;;;;3.65;1.65;;;11.70;86.60;;;14.62;52.89;98215.16;4906407;29;20059;-55
2022/11/02 00:53:25;;;;;;;4.55;1.58;;;11.60;86.90;;;14.62;53.01;98222.34;4890324;29;20063;-56
2022/11/02 00:55:54;;;;;;;7.00;2.15;;;11.60;87.20;;;14.56;53.17;98223.88;4875048;29;20055;-55
2022/11/02 00:58:22;;;;;;;3.88;1.70;;;11.60;87.40;;;14.60;53.04;98221.69;4890206;29;20242;-54
2022/11/02 01:00:51;;;;;;;4.38;2.20;;;11.60;87.40;;;14.62;53.12;98222.34;4905120;29;20075;-54
2022/11/02 01:03:19;;;;;;;4.82;2.08;;;11.70;87.60;;;14.63;53.12;98229.38;4906299;29;20060;-53
2022/11/02 01:05:48;;;;;;;5.70;1.63;;;11.60;87.70;;;14.65;53.10;98222.00;4906636;29;20049;-50
2022/11/02 01:08:16;;;;;;;5.45;2.13;;;11.60;87.40;;;14.67;53.17;98223.50;4890625;29;20070;-55
2022/11/02 01:10:44;;;;;;;5.22;1.52;;;11.60;88.10;;;14.64;53.15;98220.34;4906663;29;20052;-54
2022/11/02 01:13:16;;;;;;;5.15;1.58;;;11.60;88.10;;;14.60;53.22;98219.00;4890796;29;20062;-54
2022/11/02 01:15:44;;;;;;;6.85;1.70;;;11.60;88.70;;;14.56;53.44;98219.38;4888983;29;20059;-50
2022/11/02 01:18:13;;;;;;;3.53;1.75;;;11.60;88.50;;;14.54;53.53;98215.16;4906934;29;20055;-54
2022/11/02 01:20:41;;;;;;;3.03;1.48;;;11.50;88.40;;;14.53;53.47;98218.84;4906809;29;20053;-51
2022/11/02 01:23:09;;;;;;;4.45;2.40;;;11.50;88.60;;;14.50;53.50;98222.72;4906970;29;20354;-53
2022/11/02 01:25:43;;;;;;;5.47;1.90;;;11.50;89.10;;;14.44;53.75;98207.28;4906303;29;20063;-55
2022/11/02 01:28:15;;;;;;;4.43;1.77;;;11.40;89.20;;;14.46;53.73;98204.44;4905014;29;20227;-54
2022/11/02 01:30:43;;;;;;;5.57;1.65;;;11.40;89.50;;;14.51;53.64;98210.97;4890256;29;20208;-53
2022/11/02 01:33:12;;;;;;;6.05;2.78;;;11.50;89.50;;;14.47;53.64;98212.31;4906960;29;20060;-55
2022/11/02 01:35:40;;;;;;;4.00;1.30;;;11.50;89.30;;;14.55;53.60;98220.31;4889861;29;20053;-55
2022/11/02 01:38:08;;;;;;;6.68;1.50;;;11.50;89.30;;;14.55;53.86;98228.38;4890401;29;20059;-52
2022/11/02 01:40:38;;;;;;;3.97;1.63;;;11.60;88.80;;;14.57;53.51;98220.19;4906561;29;20381;-54
2022/11/02 01:43:22;;;;;;;5.80;1.42;;;11.60;89.20;;;14.62;53.67;98219.66;4890496;29;20045;-54
2022/11/02 01:46:03;;;;;;;2.60;1.35;;;11.70;88.50;;;14.63;53.53;98214.13;4906381;29;20052;-54
2022/11/02 01:48:42;;;;;;;5.82;1.60;;;11.60;88.80;;;14.65;53.53;98219.34;4889757;29;20067;-52
2022/11/02 01:51:30;;;;;;;3.70;1.90;;;11.70;88.60;;;14.67;53.71;98207.41;4874821;29;20405;-51
2022/11/02 01:54:11;;;;;;;4.32;1.60;;;11.70;88.70;;;14.66;53.64;98197.72;4906239;29;20059;-55
2022/11/02 01:56:41;;;;;;;4.57;1.73;;;11.70;88.50;;;14.70;53.40;98198.22;4890925;29;20068;-53
2022/11/02 01:59:15;;;;;;;4.03;1.77;;;11.70;88.70;;;14.72;53.35;98197.03;4904826;29;20059;-54
2022/11/02 02:01:43;;;;;;;6.13;1.90;;;11.70;88.40;;;14.68;53.37;98187.66;4905821;29;20060;-55
2022/11/02 02:04:12;;;;;;;5.78;2.00;;;11.70;88.50;;;14.61;53.42;98180.50;4889466;29;20063;-54
2022/11/02 02:06:42;;;;;;;4.50;2.20;;;11.60;88.60;;;14.60;53.59;98184.16;4889820;29;20258;-51
2022/11/02 02:09:13;;;;;;;5.30;1.77;;;11.60;88.90;;;14.66;53.23;98186.19;4890120;29;20375;-54
2022/11/02 02:11:41;;;;;;;4.15;2.50;;;11.60;87.90;;;14.62;53.33;98177.66;4874819;29;20059;-55
2022/11/02 02:14:19;;;;;;;6.65;1.80;;;11.60;88.10;;;14.62;53.21;98174.97;4909650;29;20049;-52
2022/11/02 02:17:24;;;;;;;2.45;1.83;;;11.60;88.00;;;14.61;53.38;98172.47;4892871;29;20059;-52
2022/11/02 02:20:34;;;;;;;2.42;1.48;;;11.60;88.10;;;14.64;53.26;98175.63;4909090;29;20052;-54
2022/11/02 02:23:42;;;;;;;4.18;1.98;;;11.60;88.10;;;14.58;53.39;98170.97;4895811;29;20059;-52
2022/11/02 02:26:49;;;;;;;3.47;1.77;;;11.50;88.60;;;14.64;53.10;98172.13;4909923;29;20060;-53
2022/11/02 02:29:21;;;;;;;4.65;2.15;;;11.60;88.10;;;14.63;53.10;98162.41;4892470;29;20262;-54
2022/11/02 02:32:23;;;;;;;5.90;2.55;;;11.60;88.30;;;14.59;53.20;98158.41;4909629;29;20365;-54
2022/11/02 02:35:01;;;;;;;5.75;1.98;;;11.50;88.20;;;14.56;53.24;98164.91;4892584;29;20370;-55
2022/11/02 02:37:47;;;;;;;5.50;2.55;;;11.50;88.20;;;14.55;53.23;98161.38;4893726;29;20048;-50
2022/11/02 02:40:30;;;;;;;5.28;1.92;;;11.50;88.50;;;14.53;53.46;98159.91;4892769;29;20247;-53
2022/11/02 02:43:33;;;;;;;5.72;2.15;;;11.50;89.20;;;14.48;53.38;98160.44;4893799;29;20059;-56
2022/11/02 02:46:26;;;;;;;3.20;1.75;;;11.50;88.70;;;14.52;53.43;98160.88;4908720;29;20062;-55
2022/11/02 02:48:56;;;;;;;5.28;2.05;;;11.50;89.30;;;14.51;53.49;98156.56;4877261;29;20063;-55
2022/11/02 02:51:32;;;;;;;2.97;1.60;;;11.40;89.00;;;14.52;53.43;98159.06;4877477;29;20057;-54
2022/11/02 02:54:11;;;;;;;5.05;2.00;;;11.50;89.50;;;14.56;53.57;98156.88;4892319;29;20068;-54
2022/11/02 02:56:53;;;;;;;3.50;1.85;;;11.50;89.10;;;14.59;53.59;98150.38;4893047;29;20228;-51
2022/11/02 02:59:34;;;;;;;4.10;1.50;;;11.60;89.10;;;14.58;53.69;98162.94;4893021;29;20057;-55
2022/11/02 03:02:08;;;;;;;6.65;2.08;;;11.60;88.90;;;14.64;53.61;98153.38;4893384;29;20369;-50
2022/11/02 03:04:36;;;;;;;6.45;1.77;;;11.70;88.90;;;14.66;53.58;98168.25;4907202;29;20056;-52
2022/11/02 03:07:07;;;;;;;5.78;2.03;;;11.70;88.80;;;14.69;53.51;98159.00;4892659;29;20063;-53
2022/11/02 03:09:46;;;;;;;6.72;2.67;;;11.60;88.60;;;14.70;53.41;98150.81;4892596;29;20250;-52
2022/11/02 03:13:00;;;;;;;4.07;1.73;;;11.70;88.50;;;14.66;53.97;98160.22;4893235;29;20047;-53
2022/11/02 03:15:41;;;;;;;8.30;1.90;;;11.70;88.70;;;14.63;53.62;98163.22;4893387;29;20049;-53
2022/11/02 03:18:47;;;;;;;5.05;1.52;;;11.70;89.20;;;14.61;53.97;98167.91;4893065;29;20057;-54
2022/11/02 03:21:24;;;;;;;6.22;1.75;;;11.60;90.00;;;14.60;53.76;98165.41;4908981;29;20049;-52
2022/11/02 03:24:05;;;;;;;3.47;1.77;;;11.60;89.90;;;14.53;54.06;98159.91;4891172;29;20069;-51
2022/11/02 03:26:46;;;;;;;6.88;2.28;;;11.50;89.90;;;14.57;54.13;98161.25;4892794;29;20056;-53
2022/11/02 03:29:37;;;;;;;4.57;2.55;;;11.50;90.10;;;14.62;54.04;98155.34;4892422;29;20056;-54
2022/11/02 03:32:35;;;;;;;7.88;2.25;;;11.60;90.10;;;14.65;53.79;98161.19;4893862;29;20239;-54
2022/11/02 03:35:14;;;;;;;5.38;2.00;;;11.70;89.50;;;14.67;53.85;98164.53;4890917;29;20052;-55
2022/11/02 03:38:11;;;;;;;5.80;1.80;;;11.70;89.50;;;14.65;53.69;98155.84;4892864;29;20053;-55
2022/11/02 03:40:51;;;;;;;4.93;2.58;;;11.70;89.20;;;14.67;53.69;98158.34;4876984;29;20064;-53
2022/11/02 03:43:20;;;;;;;4.93;1.80;;;11.60;89.10;;;14.62;53.68;98160.72;4876766;29;20057;-53
2022/11/02 03:45:57;;;;;;;3.93;2.10;;;11.60;89.50;;;14.53;54.00;98162.56;4892289;29;20063;-56
2022/11/02 03:48:41;;;;;;;4.68;1.67;;;11.50;89.60;;;14.53;54.03;98173.28;4876460;29;20254;-54
2022/11/02 03:51:18;;;;;;;4.70;2.15;;;11.50;90.10;;;14.55;53.87;98166.75;4877657;29;20052;-52
2022/11/02 03:54:10;;;;;;;5.05;2.20;;;11.50;89.80;;;14.56;53.75;98172.97;4891828;29;20051;-54
2022/11/02 03:56:50;;;;;;;5.18;2.00;;;11.50;89.80;;;14.52;53.74;98180.50;4892360;29;20067;-53
2022/11/02 03:59:19;;;;;;;4.03;1.60;;;11.50;90.60;;;14.47;53.78;98182.03;4891023;29;20048;-52
2022/11/02 04:01:51;;;;;;;3.40;1.80;;;11.40;90.20;;;14.40;53.99;98183.72;4874464;29;20053;-53
2022/11/02 04:04:21;;;;;;;3.95;2.00;;;11.30;90.50;;;14.38;54.01;98181.19;4889803;29;20059;-51
2022/11/02 04:06:51;;;;;;;2.42;1.85;;;11.30;90.60;;;14.34;54.08;98188.75;4906578;29;20052;-53
2022/11/02 04:09:20;;;;;;;4.97;2.00;;;11.20;91.00;;;14.29;54.04;98180.41;4891664;29;20246;-54
2022/11/02 04:14:38;;;;;;;3.92;1.67;;;11.20;91.20;;;14.22;54.33;98186.63;4907504;29;20053;-54
2022/11/02 04:20:03;;;;;;;4.28;1.83;;;11.10;91.70;;;14.12;54.50;98192.16;4906691;29;20086;-54
2022/11/02 04:25:38;;;;;;;5.85;2.17;;;11.10;92.10;;;14.07;54.52;98195.34;4834571;29;20058;-55
2022/11/02 04:28:12;;;;;;;3.88;2.63;;;11.00;92.20;;;14.04;54.44;98198.38;4850618;29;20042;-54
2022/11/02 04:30:46;;;;;;;11.20;2.58;;;11.00;92.30;;;13.99;54.56;98200.69;4882720;29;20064;-56
2022/11/02 04:33:33;;;;;;;5.97;2.40;;;10.90;92.40;;;14.00;54.50;98199.72;4891211;29;20048;-54
2022/11/02 04:36:14;;;;;;;3.20;2.28;;;10.90;92.60;;;14.03;54.53;98202.03;4889671;29;20058;-55
2022/11/02 04:38:44;;;;;;;3.95;2.20;;;11.00;92.40;;;14.00;54.54;98202.41;4891069;29;20351;-53
2022/11/02 04:41:42;;;;;;;5.43;3.38;;;11.00;92.30;;;14.01;54.51;98204.03;4905908;29;20335;-54
2022/11/02 04:44:30;;;;;;;5.68;2.20;;;11.00;92.20;;;14.03;54.47;98207.38;4895703;29;20368;-55
2022/11/02 04:47:21;;;;;;;4.57;1.83;;;11.00;92.30;;;14.03;54.60;98206.56;4904996;29;20048;-54
2022/11/02 04:49:50;;;;;;;4.80;2.22;;;11.00;92.10;;;14.05;54.48;98204.56;4906238;29;20056;-52
2022/11/02 04:52:19;;;;;;;7.72;2.00;;;11.10;92.00;;;14.04;54.39;98208.25;4890649;29;20056;-53
2022/11/02 04:54:50;;;;;;;3.92;1.73;;;11.10;91.60;;;14.09;54.49;98208.56;4890035;29;20052;-55
2022/11/02 04:57:19;;;;;;;4.57;2.40;;;11.20;91.70;;;14.07;54.50;98203.38;4905335;29;20055;-53
2022/11/02 04:59:47;;;;;;;6.90;2.55;;;11.10;91.10;;;14.01;54.45;98203.22;4905362;29;20058;-54
2022/11/02 05:02:16;;;;;;;7.60;2.40;;;11.10;91.60;;;13.99;54.60;98201.53;4890578;29;20246;-52
2022/11/02 05:04:44;;;;;;;8.75;2.90;;;11.00;91.40;;;13.99;54.48;98208.72;4905503;29;20053;-52
2022/11/02 05:07:14;;;;;;;5.80;2.08;;;11.10;92.60;;;14.06;54.40;98214.25;4905811;29;20055;-55
2022/11/02 05:09:42;;;;;;;4.50;1.80;;;11.10;91.50;;;14.06;54.33;98214.25;4906805;29;20048;-53
2022/11/02 05:12:12;;;;;;;6.50;2.15;;;11.10;91.50;;;14.09;54.29;98217.41;4890060;29;20048;-54
2022/11/02 05:14:40;;;;;;;4.60;2.75;;;11.10;91.10;;;14.11;54.30;98222.59;4905445;29;20055;-55
2022/11/02 05:17:08;;;;;;;5.00;1.98;;;11.20;91.20;;;14.13;54.29;98217.91;4904645;29;20056;-55
2022/11/02 05:19:38;;;;;;;5.43;1.70;;;11.20;91.00;;;14.20;54.33;98220.75;4905298;29;20052;-52
2022/11/02 05:22:06;;;;;;;8.15;2.58;;;11.30;90.70;;;14.18;54.42;98223.59;4890362;29;20056;-51
2022/11/02 05:24:35;;;;;;;8.57;2.35;;;11.30;91.00;;;14.23;54.35;98226.63;4905406;29;20052;-55
2022/11/02 05:27:04;;;;;;;5.20;1.67;;;11.30;91.10;;;14.29;54.33;98227.78;4905840;29;20052;-53
2022/11/02 05:29:35;;;;;;;4.10;2.33;;;11.40;91.00;;;14.33;54.36;98226.44;4874755;29;20060;-50
2022/11/02 05:32:04;;;;;;;9.25;2.88;;;11.40;91.30;;;14.38;54.33;98224.91;4905560;29;20062;-53
2022/11/02 05:34:33;;;;;;;6.85;2.72;;;11.50;90.50;;;14.43;54.21;98226.25;4873892;29;20057;-53
2022/11/02 05:37:01;;;;;;;7.43;2.20;;;11.50;90.20;;;14.48;54.12;98235.44;4905669;29;20059;-52
2022/11/02 05:39:29;;;;;;;3.78;1.65;;;11.50;90.30;;;14.54;54.09;98232.06;4915955;29;20063;-54
2022/11/02 05:41:58;;;;;;;6.63;1.70;;;11.60;89.60;;;14.60;53.82;98232.41;4921339;29;20052;-55
2022/11/02 05:44:27;;;;;;;3.22;1.70;;;11.70;89.70;;;14.64;53.85;98236.44;4921031;29;20067;-55
2022/11/02 05:46:55;;;;;;;6.97;3.58;;;11.80;89.20;;;14.66;53.97;98240.59;4921981;29;20269;-56
2022/11/02 05:49:23;;;;;;;5.00;1.67;;;11.80;88.90;;;14.73;53.79;98240.72;4910796;29;20060;-51
2022/11/02 05:51:51;;;;;;;5.40;1.70;;;11.80;88.70;;;14.74;53.68;98248.59;4910488;29;20246;-51
2022/11/02 05:54:20;;;;;;;4.53;1.80;;;11.80;88.60;;;14.78;53.44;98249.09;4909252;29;20045;-55
2022/11/02 05:56:48;;;;;;;5.13;1.90;;;11.90;88.30;;;14.83;53.50;98246.75;4910439;29;20049;-54
2022/11/02 05:59:16;;;;;;;2.65;1.40;;;12.00;88.30;;;14.86;53.38;98254.41;4910816;29;20059;-53
2022/11/02 06:01:44;;;;;;;4.43;1.77;;;12.00;87.60;;;14.94;53.24;98258.91;4910316;29;20048;-56
2022/11/02 06:04:12;;;;;;;3.97;1.70;;;12.10;87.50;;;14.96;53.13;98265.75;4909655;29;20350;-53
2022/11/02 06:06:42;;;;;;;4.75;1.95;;;12.10;87.40;;;14.96;53.00;98262.25;4910147;29;20064;-54
2022/11/02 06:09:10;;;;;;;8.93;1.98;;;12.00;86.80;;;14.98;53.00;98264.78;4910188;29;20054;-54
2022/11/02 06:11:39;;;;;;;4.82;1.90;;;11.90;87.50;;;14.98;52.92;98265.59;4910027;29;20059;-54
2022/11/02 06:14:07;;;;;;;4.38;1.85;;;11.90;87.10;;;14.95;52.89;98272.16;4909272;29;20056;-52
2022/11/02 06:16:35;;;;;;;2.55;1.75;;;11.90;87.70;;;14.93;52.84;98279.53;4908070;29;20055;-52
2022/11/02 06:19:03;;;;;;;3.78;1.52;;;11.90;87.10;;;14.85;52.98;98278.72;4910200;29;20059;-52
2022/11/02 06:21:31;;;;;;;3.78;2.00;;;11.80;87.60;;;14.90;52.86;98277.19;4909664;29;20048;-54
2022/11/02 06:24:00;;;;;;;5.20;1.88;;;11.90;87.90;;;14.93;52.98;98279.53;4909301;29;20061;-54
2022/11/02 06:26:28;;;;;;;3.17;1.48;;;11.80;87.50;;;14.94;52.73;98281.19;4909928;29;20051;-49
2022/11/02 06:28:56;;;;;;;3.65;1.70;;;11.80;87.80;;;14.99;52.89;98290.59;4910181;29;20067;-54
2022/11/02 06:31:24;;;;;;;4.68;1.80;;;11.90;87.80;;;15.02;52.69;98287.53;4909502;29;20110;-53
2022/11/02 06:33:52;;;;;;;4.38;1.60;;;11.90;87.40;;;15.05;52.33;98298.75;4909107;29;20052;-54
2022/11/02 06:36:20;;;;;;;5.90;2.40;;;11.90;87.20;;;15.06;52.83;98307.63;4909411;29;20059;-55
2022/11/02 06:38:49;;;;;;;8.20;2.08;;;11.90;87.40;;;15.08;52.68;98308.28;4908372;29;20347;-54
2022/11/02 06:41:18;;;;;;;4.75;2.10;;;12.00;87.80;;;15.13;52.65;98317.50;4908292;29;20258;-53
2022/11/02 06:43:47;;;;;;;5.78;2.17;;;12.10;87.30;;;15.11;52.57;98316.81;4909047;29;20056;-54
2022/11/02 06:46:15;;;;;;;3.13;1.98;;;12.10;86.80;;;15.12;52.65;98317.66;4909423;29;20251;-55
2022/11/02 06:48:46;;;;;;;5.68;2.42;;;12.10;86.90;;;15.03;52.87;98327.59;4909197;29;20052;-55
2022/11/02 06:51:15;;;;;;;7.50;2.15;;;12.10;86.70;;;15.11;52.95;98334.78;4909316;29;20287;-55
2022/11/02 06:53:43;;;;;;;5.18;1.90;;;12.10;87.30;;;15.13;53.11;98327.38;4907204;29;20049;-56
2022/11/02 06:56:11;;;;;;;4.00;1.73;;;12.10;87.60;;;15.13;53.24;98328.22;4909476;29;20056;-55
2022/11/02 06:58:39;;;;;;;6.43;1.70;;;12.10;88.50;;;15.11;53.21;98343.66;4908171;29;20051;-57
2022/11/02 07:01:08;;;;;;;6.40;1.73;;;12.10;88.60;;;15.11;53.61;98343.66;4909461;29;20058;-53
2022/11/02 07:03:36;;;;;;;7.47;2.17;;;12.00;89.10;;;15.11;53.43;98350.88;4905487;29;20071;-55
2022/11/02 07:06:04;;;;;;;6.35;1.67;;;12.00;89.60;;;15.14;53.53;98348.69;4908870;29;20053;-56
2022/11/02 07:08:41;;;;;;;8.98;2.53;;;12.00;90.10;;;15.13;53.51;98355.03;4908990;29;20228;-56
2022/11/02 07:11:14;;;;;;;7.95;2.10;;;12.00;90.50;;;15.12;54.01;98363.25;4907634;29;20224;-52
2022/11/02 07:13:42;;;;;;;6.37;1.97;;;12.00;91.00;;;15.18;53.74;98365.25;4908738;29;20235;-56
2022/11/02 07:16:11;;;;;;;3.97;1.70;;;12.10;91.10;;;15.20;53.94;98370.44;4907599;29;20621;-53
2022/11/02 07:18:40;;;;;;;6.13;1.50;;;12.10;91.50;;;15.23;54.01;98376.28;4908703;29;20053;-55
2022/11/02 07:21:10;;;;;;;5.90;1.95;;;12.10;91.80;;;15.23;54.14;98373.59;4908701;29;20045;-58
2022/11/02 07:23:39;;;;;;;6.63;1.92;;;12.10;91.80;;;15.05;54.57;98370.31;4908576;29;20056;-56
2022/11/02 07:26:07;;;;;;;4.88;1.75;;;12.00;92.40;;;15.18;54.58;98372.44;4908721;29;20313;-59
2022/11/02 07:28:37;;;;;;;4.00;1.58;;;12.10;92.90;;;15.24;54.54;98379.81;4908462;29;20048;-56
2022/11/02 07:31:05;;;;;;;4.78;1.40;;;12.20;92.40;;;15.27;54.05;98380.28;4908515;29;20054;-60
2022/11/02 07:33:33;;;;;;;3.03;1.77;;;12.30;92.00;;;15.31;54.49;98380.78;4908366;29;20049;-57
2022/11/02 07:36:04;;;;;;;5.43;1.75;;;12.30;91.90;;;15.33;54.67;98381.44;4908334;29;20044;-58
2022/11/02 07:38:32;;;;;;;5.57;2.00;;;12.50;91.60;;;15.47;54.21;98390.59;4908634;29;20054;-56
2022/11/02 07:41:00;;;;;;;3.55;1.50;;;12.60;91.20;;;15.52;54.23;98378.34;4908263;29;20056;-57
2022/11/02 07:43:29;;;;;;;4.53;1.50;;;12.60;90.80;;;15.54;54.12;98386.22;4908307;29;20052;-56
2022/11/02 07:46:24;;;;;;;5.05;1.45;;;12.60;91.00;;;15.59;54.08;98378.50;4893493;29;20048;-58
2022/11/02 07:48:52;;;;;;;9.02;2.88;;;12.60;91.00;;;15.61;54.06;98387.22;4908317;29;20246;-59
2022/11/02 07:51:20;;;;;;;2.95;1.63;;;12.60;90.80;;;15.62;53.88;98393.41;4908292;29;20055;-59
2022/11/02 07:53:48;;;;;;;5.05;1.83;;;12.60;90.70;;;15.61;54.09;98384.53;4904984;29;20066;-57
2022/11/02 07:56:17;;;;;;;4.93;1.88;;;12.70;91.00;;;15.58;54.16;98389.41;4899713;29;20410;-58
2022/11/02 07:58:46;;;;;;;3.38;2.08;;;12.60;90.60;;;15.56;54.08;98387.72;4904597;29;20060;-58
2022/11/02 08:01:16;;;;;;;5.32;2.40;;;12.60;91.00;;;15.53;54.20;98389.94;4904194;29;20040;-58
2022/11/02 08:03:44;;;;;;;6.00;2.08;;;12.60;90.80;;;15.58;54.08;98397.44;4904486;29;20044;-59
2022/11/02 08:06:12;;;;;;;5.20;1.90;;;12.60;90.90;;;15.56;54.21;98393.09;4902904;29;20063;-59
2022/11/02 08:08:40;;;;;;;6.93;2.83;;;12.60;90.90;;;15.60;54.16;98392.75;4888338;29;20347;-59
2022/11/02 08:11:08;;;;;;;6.18;2.00;;;12.60;90.80;;;15.61;54.05;98397.13;4903487;29;20061;-58
2022/11/02 08:13:37;;;;;;;5.68;2.15;;;12.70;90.80;;;15.63;54.17;98400.47;4885885;29;20262;-58
2022/11/02 08:16:06;;;;;;;4.53;1.75;;;12.60;90.70;;;15.61;54.35;98395.25;4900164;29;20041;-59
2022/11/02 08:18:36;;;;;;;4.15;1.88;;;12.70;91.10;;;15.66;54.35;98394.72;4903921;29;20051;-59
2022/11/02 08:21:05;;;;;;;4.35;2.05;;;12.70;91.50;;;15.71;54.35;98390.50;4904621;29;20105;-59
2022/11/02 08:23:34;;;;;;;6.90;1.70;;;12.80;91.60;;;15.77;54.26;98401.59;4887499;29;20047;-59
2022/11/02 08:26:02;;;;;;;5.13;2.65;;;12.80;91.70;;;15.73;54.50;98395.75;4903093;29;20262;-58
2022/11/02 08:28:34;;;;;;;6.63;2.20;;;12.90;91.10;;;15.79;54.31;98386.97;4903018;29;20384;-59
2022/11/02 08:31:02;;;;;;;4.20;1.67;;;12.90;90.40;;;15.79;54.31;98394.19;4904561;29;20062;-59
2022/11/02 08:33:30;;;;;;;5.28;1.50;;;13.00;89.50;;;15.83;53.68;98390.97;4902664;29;20067;-59
2022/11/02 08:36:06;;;;;;;5.53;2.08;;;13.00;88.30;;;15.75;53.26;98394.53;4901994;29;20052;-59
2022/11/02 08:38:34;;;;;;;6.05;1.45;;;13.10;85.50;;;15.58;53.80;98398.28;4888549;29;20055;-59
2022/11/02 08:41:03;;;;;;;6.45;1.70;;;13.00;85.00;;;15.66;53.50;98384.81;4901780;29;20045;-59
2022/11/02 08:43:31;;;;;;;6.45;1.80;;;13.10;86.00;;;15.61;53.31;98389.91;4901154;29;20057;-59
2022/11/02 08:46:01;;;;;;;5.57;1.58;;;13.10;85.40;;;15.47;53.75;98394.16;4902454;29;20063;-59
2022/11/02 08:48:45;;;;;;;5.57;1.48;;;13.10;85.10;;;15.66;53.25;98400.91;4903978;29;20048;-59
2022/11/02 08:51:14;;;;;;;6.55;1.80;;;13.10;84.30;;;15.77;53.09;98388.16;4904345;29;20052;-58
2022/11/02 08:53:44;;;;;;;4.65;1.60;;;13.30;85.60;;;15.85;52.80;98398.84;4903528;29;20058;-59
2022/11/02 08:56:18;;;;;;;6.57;2.00;;;13.30;83.50;;;15.84;52.90;98389.13;4900163;29;20347;-59
2022/11/02 08:58:46;;;;;;;3.80;1.70;;;13.30;84.60;;;15.79;53.04;98396.88;4900982;29;20048;-59
2022/11/02 09:01:15;;;;;;;5.72;1.60;;;13.30;83.70;;;15.85;52.65;98388.94;4901994;29;20053;-59
2022/11/02 09:03:43;;;;;;;4.15;1.48;;;13.30;82.70;;;15.66;52.39;98394.72;4900320;29;20361;-58
2022/11/02 09:06:11;;;;;;;6.40;1.80;;;13.20;81.50;;;15.88;51.98;98393.97;4900210;29;21197;-58
2022/11/02 09:08:39;;;;;;;2.42;1.65;;;13.40;82.60;;;15.63;52.94;98395.09;4900886;29;20060;-58
2022/11/02 09:11:09;;;;;;;7.03;1.52;;;13.30;81.90;;;15.73;52.69;98399.25;4900883;29;20048;-59
2022/11/02 09:13:37;;;;;;;6.25;2.58;;;13.30;82.30;;;15.69;52.57;98399.75;4915027;29;20051;-57
2022/11/02 09:16:06;;;;;;;3.28;1.50;;;13.30;81.20;;;15.46;52.97;98388.97;4924619;29;20062;-57
2022/11/02 09:18:35;;;;;;;4.15;1.63;;;13.20;81.60;;;15.44;53.20;98396.34;4925931;29;20227;-58
2022/11/02 09:21:04;;;;;;;7.18;2.08;;;13.20;81.80;;;15.34;52.76;98397.38;4925672;29;20052;-58
2022/11/02 09:23:32;;;;;;;4.18;1.40;;;13.20;80.30;;;15.54;52.76;98394.28;4925094;29;20048;-58
2022/11/02 09:26:00;;;;;;;4.75;1.25;;;13.20;81.00;;;15.56;52.90;98397.63;4925631;29;20397;-57
2022/11/02 09:28:29;;;;;;;5.22;1.90;;;13.30;81.10;;;15.71;52.55;98400.41;4916869;29;20052;-58
2022/11/02 09:30:58;;;;;;;4.53;1.65;;;13.30;81.60;;;15.95;52.17;98407.50;4925683;29;20113;-58
2022/11/02 09:33:28;;;;;;;6.53;1.52;;;13.40;81.70;;;15.31;53.37;98411.13;4926018;29;20056;-58
2022/11/02 09:36:02;;;;;;;5.18;2.17;;;13.20;81.20;;;15.42;53.00;98409.09;4925505;29;20052;-58
2022/11/02 09:38:31;;;;;;;5.15;1.70;;;13.20;80.90;;;15.61;52.87;98422.09;4925912;29;20052;-57
2022/11/02 09:40:59;;;;;;;4.38;1.48;;;13.20;81.90;;;15.74;52.34;98413.50;4925345;29;20052;-58
2022/11/02 09:44:03;;;;;;;5.00;2.30;;;13.30;81.30;;;15.90;52.37;98418.78;4925763;29;20056;-58
2022/11/02 09:46:38;;;;;;;3.97;1.80;;;13.40;81.40;;;15.90;51.92;98421.47;4925273;29;20064;-56
2022/11/02 09:49:24;;;;;;;8.07;2.10;;;13.40;80.50;;;15.81;51.46;98422.53;4925769;29;20058;-52
2022/11/02 09:51:57;;;;;;;4.20;1.90;;;13.30;78.80;;;15.65;52.04;98420.75;4924387;29;20052;-52
2022/11/02 09:54:34;;;;;;;6.10;2.53;;;13.20;79.90;;;15.54;51.25;98421.94;4924243;29;20052;-47
2022/11/02 09:57:10;;;;;;;3.03;1.70;;;13.30;78.30;;;15.89;51.41;98419.78;4924359;29;20051;-53
2022/11/02 09:59:40;;;;;;;8.00;3.20;;;13.30;79.70;;;15.91;51.28;98417.78;4924523;29;20052;-48
2022/11/02 10:02:36;;;;;;;8.95;3.22;;;13.30;79.60;;;16.09;50.90;98424.72;4924137;29;20374;-51
2022/11/02 10:05:29;;;;;;;8.25;2.28;;;13.40;79.40;;;15.87;51.24;98429.06;4921798;29;20048;-49
2022/11/02 10:08:18;;;;;;;3.90;1.52;;;13.30;78.50;;;15.85;51.36;98425.72;4925324;29;20052;-52
2022/11/02 10:11:31;;;;;;;7.15;1.75;;;13.30;79.60;;;16.12;50.89;98422.50;4925095;29;20060;-54
2022/11/02 10:14:14;;;;;;;9.00;2.55;;;13.40;79.50;;;16.23;50.75;98431.19;4910570;29;20074;-50
2022/11/02 10:17:12;;;;;;;5.47;2.00;;;13.50;79.90;;;16.11;50.07;98428.06;4920995;29;20040;-51
2022/11/02 10:19:49;;;;;;;10.60;2.45;;;13.50;77.10;;;16.21;50.33;98433.22;4925396;29;20048;-49
2022/11/02 10:22:18;;;;;;;6.65;2.20;;;13.50;78.60;;;16.31;50.24;98437.34;4923943;29;20062;-49
2022/11/02 10:24:50;;;;;;;5.63;2.20;;;13.50;77.50;;;16.20;50.19;98431.53;4924801;29;20048;-51
2022/11/02 10:27:23;;;;;;;4.68;1.80;;;13.50;77.80;;;16.07;50.57;98441.03;4925300;29;20074;-53
2022/11/02 10:30:03;;;;;;;9.52;1.95;;;13.40;78.50;;;16.01;50.67;98428.28;4918051;29;20059;-53
2022/11/02 10:32:35;;;;;;;10.73;3.00;;;13.30;78.60;;;16.18;50.49;98436.25;4897225;29;20059;-48
2022/11/02 10:35:15;;;;;;;8.73;2.35;;;13.40;78.60;;;16.02;50.86;98431.84;4907633;29;20052;-53
2022/11/02 10:38:36;;;;;;;16.50;2.50;;;13.40;79.10;;;16.08;51.14;98444.53;4909207;29;20048;-51
2022/11/02 10:41:58;;;;;;;6.68;2.05;;;13.40;79.90;;;16.03;51.05;98439.72;4908584;29;20052;-53
2022/11/02 10:44:49;;;;;;;4.57;1.70;;;13.40;79.40;;;16.17;50.93;98437.25;4908242;29;20056;-52
2022/11/02 10:47:37;;;;;;;4.43;1.80;;;13.50;78.90;;;16.18;50.79;98439.78;4908926;29;20057;-49
2022/11/02 10:50:45;;;;;;;4.97;1.75;;;13.50;78.60;;;16.13;50.65;98436.81;4908749;29;20053;-53
2022/11/02 10:53:20;;;;;;;9.30;2.05;;;13.50;78.20;;;16.11;50.60;98436.97;4908767;29;20059;-51
2022/11/02 10:56:22;;;;;;;8.75;1.90;;;13.50;78.10;;;16.21;50.48;98427.88;4908203;29;20054;-51
2022/11/02 10:59:12;;;;;;;6.82;2.72;;;13.50;77.60;;;16.21;50.50;98426.00;4909016;29;20045;-51